createdAt,value
2018-08-20T17:52:37.160Z,10.13
2018-08-20T17:55:06.014Z,5.12
2018-08-20T17:57:34.561Z,6.15
2018-08-20T18:00:16.545Z,2.95
2018-08-20T18:02:44.918Z,8.87
2018-08-20T18:05:13.719Z,10.58
2018-08-20T18:07:42.116Z,8.23
2018-08-20T18:10:10.567Z,19.37
2018-08-20T18:12:39.827Z,13.98
2018-08-20T18:15:08.345Z,11.03
2018-08-20T18:17:36.669Z,13.95
2018-08-20T18:20:05.393Z,10.65
2018-08-20T18:22:34.152Z,6.22
2018-08-20T18:25:02.540Z,6.72
2018-08-20T18:27:36.076Z,4.35
2018-08-20T18:30:04.795Z,3.50
2018-08-20T18:32:33.119Z,3.33
2018-08-20T18:35:01.435Z,7.33
2018-08-20T18:37:31.157Z,8.50
2018-08-20T18:40:00.195Z,5.92
2018-08-20T18:42:49.194Z,5.03
2018-08-20T18:45:17.651Z,9.73
2018-08-20T18:47:46.116Z,6.33
2018-08-20T18:50:14.555Z,6.08
2018-08-20T18:52:42.921Z,7.67
2018-08-20T18:55:11.361Z,4.80
2018-08-20T18:57:39.760Z,4.17
2018-08-20T19:00:12.191Z,12.85
2018-08-20T19:02:53.881Z,23.22
2018-08-20T19:05:22.533Z,10.25
2018-08-20T19:07:51.077Z,10.13
2018-08-20T19:10:26.232Z,6.50
2018-08-20T19:12:54.601Z,3.05
2018-08-20T19:15:56.164Z,6.72
2018-08-20T19:18:29.241Z,4.45
2018-08-20T19:20:57.656Z,2.17
2018-08-20T19:23:26.037Z,3.30
2018-08-20T19:25:54.513Z,4.00
2018-08-20T19:28:23.893Z,5.85
2018-08-20T19:30:53.655Z,4.37
2018-08-20T19:33:27.543Z,7.00
2018-08-20T19:35:56.660Z,17.90
2018-08-20T19:38:25.092Z,5.90
2018-08-20T19:41:03.856Z,7.90
2018-08-20T19:43:37.678Z,7.42
2018-08-20T19:46:06.047Z,2.85
2018-08-20T19:48:34.500Z,4.55
2018-08-20T19:51:05.547Z,3.02
2018-08-20T19:53:33.925Z,5.80
2018-08-20T19:56:02.283Z,2.40
2018-08-20T19:58:34.788Z,2.42
2018-08-20T20:01:10.068Z,3.40
2018-08-20T20:03:43.430Z,2.80
2018-08-20T20:06:11.889Z,5.67
2018-08-20T20:08:40.362Z,4.42
2018-08-20T20:11:16.190Z,2.40
2018-08-20T20:13:44.577Z,1.70
2018-08-20T20:16:12.931Z,2.40
2018-08-20T20:18:41.304Z,2.10
2018-08-20T20:21:09.688Z,3.65
2018-08-20T20:23:38.146Z,4.90
2018-08-20T20:26:06.749Z,3.30
2018-08-20T20:28:35.136Z,4.90
2018-08-20T20:31:03.516Z,2.37
2018-08-20T20:33:32.080Z,4.42
2018-08-20T20:36:00.423Z,3.40
2018-08-20T20:38:28.848Z,4.12
2018-08-20T20:40:57.075Z,3.60
2018-08-20T20:43:33.342Z,1.50
2018-08-20T20:46:01.823Z,4.40
2018-08-20T20:48:30.212Z,3.80
2018-08-20T20:50:58.579Z,3.65
2018-08-20T20:53:26.971Z,3.10
2018-08-20T20:55:55.438Z,2.00
2018-08-20T20:58:30.888Z,2.50
2018-08-20T21:01:00.436Z,3.40
2018-08-20T21:03:46.169Z,2.52
2018-08-20T21:06:14.542Z,2.12
2018-08-20T21:08:47.324Z,4.30
2018-08-20T21:11:16.632Z,2.70
2018-08-20T21:13:45.440Z,2.30
2018-08-20T21:16:17.492Z,3.90
2018-08-20T21:18:51.087Z,2.20
2018-08-20T21:21:19.969Z,6.20
2018-08-20T21:23:48.413Z,4.20
2018-08-20T21:26:16.966Z,1.80
2018-08-20T21:28:51.713Z,3.60
2018-08-20T21:31:21.287Z,2.10
2018-08-20T21:33:57.824Z,2.80
2018-08-20T21:36:26.136Z,3.53
2018-08-20T21:38:54.530Z,1.73
2018-08-20T21:41:25.757Z,1.40
2018-08-20T21:43:54.538Z,2.40
2018-08-20T21:46:23.140Z,2.15
2018-08-20T21:48:51.457Z,4.90
2018-08-20T21:51:25.145Z,1.70
2018-08-20T21:53:53.574Z,1.80
2018-08-20T21:56:21.934Z,1.70
2018-08-20T21:58:50.389Z,3.90
2018-08-20T22:01:18.975Z,4.20
2018-08-20T22:03:47.318Z,2.60
2018-08-20T22:06:15.686Z,4.90
2018-08-20T22:08:44.070Z,2.70
2018-08-20T22:11:12.721Z,3.00
2018-08-20T22:13:41.231Z,1.60
2018-08-20T22:16:17.609Z,2.20
2018-08-20T22:18:47.401Z,3.10
2018-08-20T22:21:17.005Z,4.60
2018-08-20T22:23:46.114Z,2.10
2018-08-20T22:26:17.912Z,4.80
2018-08-20T22:28:48.804Z,2.37
2018-08-20T22:31:17.455Z,3.60
2018-08-20T22:33:58.509Z,3.17
2018-08-20T22:36:27.724Z,4.00
2018-08-20T22:39:00.231Z,2.42
2018-08-20T22:41:29.821Z,2.42
2018-08-20T22:43:58.328Z,2.40
2018-08-20T22:46:27.090Z,2.85
2018-08-20T22:48:59.227Z,1.72
2018-08-20T22:51:28.778Z,3.00
2018-08-20T22:53:59.955Z,3.40
2018-08-20T22:56:34.840Z,1.80
2018-08-20T22:59:10.085Z,1.98
2018-08-20T23:01:38.495Z,2.40
2018-08-20T23:04:07.177Z,2.90
2018-08-20T23:06:35.607Z,2.83
2018-08-20T23:09:28.487Z,1.52
2018-08-20T23:11:56.943Z,4.40
2018-08-20T23:14:25.581Z,2.40
2018-08-20T23:16:53.944Z,2.65
2018-08-20T23:19:22.288Z,2.70
2018-08-20T23:21:53.534Z,2.40
2018-08-20T23:24:21.950Z,1.90
2018-08-20T23:26:50.845Z,4.22
2018-08-20T23:29:19.198Z,2.25
2018-08-20T23:31:47.550Z,2.20
2018-08-20T23:34:16.267Z,3.22
2018-08-20T23:36:44.667Z,3.80
2018-08-20T23:39:15.293Z,3.30
2018-08-20T23:41:43.813Z,2.73
2018-08-20T23:44:15.788Z,2.80
2018-08-20T23:46:46.992Z,2.20
2018-08-20T23:49:15.366Z,2.02
2018-08-20T23:51:43.839Z,3.77
2018-08-20T23:54:12.738Z,2.10
2018-08-20T23:56:41.157Z,1.90
2018-08-20T23:59:09.721Z,2.85
